Ballerina — SKNY — position and weather

sailwx.info

Track history (hours):
 
Tides and Currents Weather Stations Pressure Air Temp Water Temp Dewpoint Dewpoint Depression Visibility Wind Speed Wind Dir Waves Ship Positions

Ballerina

Last reported at 2017-Feb-13 09:04 UTC. Time now 2017-Feb-20 04:52 UTC.
Position N 59°21' E 018°15'.

Type: Passenger vessel. MMSI: 265550720.

Date/timePositionNaut miles runAvg speedWind from/ knotsBaromVisibWave heightAir tempDewpointWater temp
2017-Feb-13 09:04N 59°21' E 018°15'510.6
2017-Feb-13 08:33N 59°20' E 018°05'  
2017-Feb-09 09:32N 59°20' E 018°05'0 0.0
2017-Feb-09 08:32N 59°20' E 018°05'0 0.0
2017-Feb-08 19:33N 59°20' E 018°05'0 0.1
2017-Feb-08 18:33N 59°19' E 018°06'2 2.1
2017-Feb-08 17:33N 59°19' E 018°10'2 1.6
2017-Feb-08 16:33N 59°19' E 018°06'2 1.6
2017-Feb-08 15:33N 59°19' E 018°10'2 1.5
2017-Feb-08 14:33N 59°19' E 018°06'1 1.3
2017-Feb-08 13:31N 59°19' E 018°09'2 2.3
2017-Feb-08 12:31N 59°20' E 018°05'0 0.0
2017-Feb-08 11:31N 59°20' E 018°05'0 0.0
2017-Feb-08 10:31N 59°20' E 018°05'0 0.2
2017-Feb-08 09:33N 59°20' E 018°05'2 1.9
2017-Feb-08 08:33N 59°21' E 018°08'2 1.8
2017-Feb-08 07:32N 59°20' E 018°05'2 1.9
2017-Feb-08 06:32N 59°21' E 018°08'2 2.0
2017-Feb-08 05:32N 59°20' E 018°05'0 0.0
2017-Feb-07 19:33N 59°20' E 018°05'0 0.2
2017-Feb-07 18:33N 59°20' E 018°05'2 2.1
2017-Feb-07 17:28N 59°19' E 018°10'1 1.6
2017-Feb-07 16:33N 59°19' E 018°07'2 1.4
2017-Feb-07 15:31N 59°19' E 018°10'2 1.6
2017-Feb-07 14:33N 59°19' E 018°07'2 1.5
2017-Feb-07 13:33N 59°19' E 018°10'2 2.4
2017-Feb-07 12:32N 59°20' E 018°05'0 0.0
2017-Feb-07 11:26N 59°20' E 018°05'0 0.0
2017-Feb-07 10:32N 59°20' E 018°05'0 0.0
2017-Feb-07 09:32N 59°20' E 018°05'0 0.0
2017-Feb-07 08:29N 59°20' E 018°05'  
Track history (hours):
 
Tides and Currents Weather Stations Pressure Air Temp Water Temp Dewpoint Dewpoint Depression Visibility Wind Speed Wind Dir Waves Ship Positions

Ballerina

Last reported at 2017-Feb-13 09:04 UTC. Time now 2017-Feb-20 04:52 UTC.
Position N 59°21' E 018°15'.

Type: Passenger vessel. MMSI: 265550720.

Date/timePositionNaut miles runAvg speedWind from/ knotsBaromVisibWave heightAir tempDewpointWater temp
2017-Feb-13 09:04N 59°21' E 018°15'510.6
2017-Feb-13 08:33N 59°20' E 018°05'  
2017-Feb-09 09:32N 59°20' E 018°05'0 0.0
2017-Feb-09 08:32N 59°20' E 018°05'0 0.0
2017-Feb-08 19:33N 59°20' E 018°05'0 0.1
2017-Feb-08 18:33N 59°19' E 018°06'2 2.1
2017-Feb-08 17:33N 59°19' E 018°10'2 1.6
2017-Feb-08 16:33N 59°19' E 018°06'2 1.6
2017-Feb-08 15:33N 59°19' E 018°10'2 1.5
2017-Feb-08 14:33N 59°19' E 018°06'1 1.3
2017-Feb-08 13:31N 59°19' E 018°09'2 2.3
2017-Feb-08 12:31N 59°20' E 018°05'0 0.0
2017-Feb-08 11:31N 59°20' E 018°05'0 0.0
2017-Feb-08 10:31N 59°20' E 018°05'0 0.2
2017-Feb-08 09:33N 59°20' E 018°05'2 1.9
2017-Feb-08 08:33N 59°21' E 018°08'2 1.8
2017-Feb-08 07:32N 59°20' E 018°05'2 1.9
2017-Feb-08 06:32N 59°21' E 018°08'2 2.0
2017-Feb-08 05:32N 59°20' E 018°05'0 0.0
2017-Feb-07 19:33N 59°20' E 018°05'0 0.2
2017-Feb-07 18:33N 59°20' E 018°05'2 2.1
2017-Feb-07 17:28N 59°19' E 018°10'1 1.6
2017-Feb-07 16:33N 59°19' E 018°07'2 1.4
2017-Feb-07 15:31N 59°19' E 018°10'2 1.6
2017-Feb-07 14:33N 59°19' E 018°07'2 1.5
2017-Feb-07 13:33N 59°19' E 018°10'2 2.4
2017-Feb-07 12:32N 59°20' E 018°05'0 0.0
2017-Feb-07 11:26N 59°20' E 018°05'0 0.0
2017-Feb-07 10:32N 59°20' E 018°05'0 0.0
2017-Feb-07 09:32N 59°20' E 018°05'0 0.0
2017-Feb-07 08:29N 59°20' E 018°05'  

Dump ship's entire track history